sensor_id;sensor_type;location;lat;lon;timestamp;P1;durP1;ratioP1;P2;durP2;ratioP2
63218;SDS011;49320;52.512;13.448;2022-12-07T00:01:30;8.43;;;7.32;;
63218;SDS011;49320;52.512;13.448;2022-12-07T00:04:05;7.47;;;6.65;;
63218;SDS011;49320;52.512;13.448;2022-12-07T00:06:44;8.18;;;7.25;;
63218;SDS011;49320;52.512;13.448;2022-12-07T00:09:16;7.88;;;6.25;;
63218;SDS011;49320;52.512;13.448;2022-12-07T00:11:44;8.75;;;6.35;;
63218;SDS011;49320;52.512;13.448;2022-12-07T00:14:15;9.45;;;6.80;;
63218;SDS011;49320;52.512;13.448;2022-12-07T00:16:43;7.88;;;7.07;;
63218;SDS011;49320;52.512;13.448;2022-12-07T00:19:11;9.10;;;7.47;;
63218;SDS011;49320;52.512;13.448;2022-12-07T00:21:40;7.75;;;6.53;;
63218;SDS011;49320;52.512;13.448;2022-12-07T00:24:08;7.57;;;6.38;;
63218;SDS011;49320;52.512;13.448;2022-12-07T00:26:38;7.57;;;6.78;;
63218;SDS011;49320;52.512;13.448;2022-12-07T00:29:08;7.05;;;6.35;;
63218;SDS011;49320;52.512;13.448;2022-12-07T00:31:45;7.07;;;6.00;;
63218;SDS011;49320;52.512;13.448;2022-12-07T00:34:14;7.70;;;6.05;;
63218;SDS011;49320;52.512;13.448;2022-12-07T00:36:44;6.45;;;5.85;;
63218;SDS011;49320;52.512;13.448;2022-12-07T00:39:11;6.05;;;5.18;;
63218;SDS011;49320;52.512;13.448;2022-12-07T00:41:38;6.72;;;6.00;;
63218;SDS011;49320;52.512;13.448;2022-12-07T00:44:04;6.75;;;6.05;;
63218;SDS011;49320;52.512;13.448;2022-12-07T00:46:31;6.82;;;6.03;;
63218;SDS011;49320;52.512;13.448;2022-12-07T00:48:58;6.90;;;5.90;;
63218;SDS011;49320;52.512;13.448;2022-12-07T00:51:25;8.15;;;6.35;;
63218;SDS011;49320;52.512;13.448;2022-12-07T00:53:52;7.05;;;6.35;;
63218;SDS011;49320;52.512;13.448;2022-12-07T00:56:23;6.75;;;6.05;;
63218;SDS011;49320;52.512;13.448;2022-12-07T01:01:22;7.95;;;5.50;;
63218;SDS011;49320;52.512;13.448;2022-12-07T01:03:52;6.28;;;5.68;;
63218;SDS011;49320;52.512;13.448;2022-12-07T01:06:20;5.95;;;5.35;;
63218;SDS011;49320;52.512;13.448;2022-12-07T01:08:48;6.28;;;5.68;;
63218;SDS011;49320;52.512;13.448;2022-12-07T01:11:17;6.18;;;5.57;;
63218;SDS011;49320;52.512;13.448;2022-12-07T01:13:51;6.15;;;5.18;;
63218;SDS011;49320;52.512;13.448;2022-12-07T01:16:22;6.40;;;5.53;;
63218;SDS011;49320;52.512;13.448;2022-12-07T01:18:52;7.22;;;5.90;;
63218;SDS011;49320;52.512;13.448;2022-12-07T01:21:24;6.85;;;6.15;;
63218;SDS011;49320;52.512;13.448;2022-12-07T01:24:00;6.45;;;5.82;;
63218;SDS011;49320;52.512;13.448;2022-12-07T01:26:28;5.93;;;5.32;;
63218;SDS011;49320;52.512;13.448;2022-12-07T01:28:55;5.90;;;5.28;;
63218;SDS011;49320;52.512;13.448;2022-12-07T01:31:25;6.00;;;5.40;;
63218;SDS011;49320;52.512;13.448;2022-12-07T01:33:55;7.47;;;6.20;;
63218;SDS011;49320;52.512;13.448;2022-12-07T01:38:59;6.53;;;5.47;;
63218;SDS011;49320;52.512;13.448;2022-12-07T01:41:31;5.68;;;5.05;;
63218;SDS011;49320;52.512;13.448;2022-12-07T01:44:18;5.70;;;5.10;;
63218;SDS011;49320;52.512;13.448;2022-12-07T01:46:50;5.68;;;5.10;;
63218;SDS011;49320;52.512;13.448;2022-12-07T01:49:23;5.82;;;4.82;;
63218;SDS011;49320;52.512;13.448;2022-12-07T01:52:01;4.97;;;4.47;;
63218;SDS011;49320;52.512;13.448;2022-12-07T01:54:46;5.82;;;5.20;;
63218;SDS011;49320;52.512;13.448;2022-12-07T01:57:17;6.05;;;4.63;;
63218;SDS011;49320;52.512;13.448;2022-12-07T01:59:45;5.38;;;4.75;;
63218;SDS011;49320;52.512;13.448;2022-12-07T02:02:18;5.50;;;4.38;;
63218;SDS011;49320;52.512;13.448;2022-12-07T02:04:52;5.05;;;4.43;;
63218;SDS011;49320;52.512;13.448;2022-12-07T02:07:21;4.63;;;4.07;;
63218;SDS011;49320;52.512;13.448;2022-12-07T02:09:50;5.10;;;4.38;;
63218;SDS011;49320;52.512;13.448;2022-12-07T02:12:16;4.90;;;4.15;;
63218;SDS011;49320;52.512;13.448;2022-12-07T02:14:44;4.90;;;4.40;;
63218;SDS011;49320;52.512;13.448;2022-12-07T02:17:15;4.70;;;4.15;;
63218;SDS011;49320;52.512;13.448;2022-12-07T02:20:00;4.38;;;3.80;;
63218;SDS011;49320;52.512;13.448;2022-12-07T02:26:26;4.05;;;3.63;;
63218;SDS011;49320;52.512;13.448;2022-12-07T02:30:00;4.05;;;3.65;;
63218;SDS011;49320;52.512;13.448;2022-12-07T02:35:44;3.90;;;3.50;;
63218;SDS011;49320;52.512;13.448;2022-12-07T02:39:09;3.95;;;3.58;;
63218;SDS011;49320;52.512;13.448;2022-12-07T02:41:51;3.78;;;3.38;;
63218;SDS011;49320;52.512;13.448;2022-12-07T02:44:25;3.92;;;3.53;;
63218;SDS011;49320;52.512;13.448;2022-12-07T02:46:55;4.13;;;3.60;;
63218;SDS011;49320;52.512;13.448;2022-12-07T02:49:29;4.25;;;3.55;;
63218;SDS011;49320;52.512;13.448;2022-12-07T02:51:57;4.68;;;3.92;;
63218;SDS011;49320;52.512;13.448;2022-12-07T02:54:24;4.55;;;4.00;;
63218;SDS011;49320;52.512;13.448;2022-12-07T02:59:48;5.05;;;4.38;;
63218;SDS011;49320;52.512;13.448;2022-12-07T03:02:36;4.90;;;4.25;;
63218;SDS011;49320;52.512;13.448;2022-12-07T03:05:29;4.72;;;4.03;;
63218;SDS011;49320;52.512;13.448;2022-12-07T03:08:13;5.53;;;4.63;;
63218;SDS011;49320;52.512;13.448;2022-12-07T03:13:49;5.28;;;4.03;;
63218;SDS011;49320;52.512;13.448;2022-12-07T03:16:35;4.88;;;4.38;;
63218;SDS011;49320;52.512;13.448;2022-12-07T03:19:20;5.38;;;4.50;;
63218;SDS011;49320;52.512;13.448;2022-12-07T03:21:56;5.80;;;4.55;;
63218;SDS011;49320;52.512;13.448;2022-12-07T03:24:31;4.57;;;4.18;;
63218;SDS011;49320;52.512;13.448;2022-12-07T03:27:16;5.43;;;4.72;;
63218;SDS011;49320;52.512;13.448;2022-12-07T03:29:54;5.20;;;4.70;;
63218;SDS011;49320;52.512;13.448;2022-12-07T03:32:30;5.22;;;4.72;;
63218;SDS011;49320;52.512;13.448;2022-12-07T03:35:03;5.22;;;4.72;;
63218;SDS011;49320;52.512;13.448;2022-12-07T03:37:56;4.65;;;4.22;;
63218;SDS011;49320;52.512;13.448;2022-12-07T03:40:45;5.05;;;4.55;;
63218;SDS011;49320;52.512;13.448;2022-12-07T03:43:19;5.00;;;4.50;;
63218;SDS011;49320;52.512;13.448;2022-12-07T03:46:02;4.90;;;4.40;;
63218;SDS011;49320;52.512;13.448;2022-12-07T03:48:59;5.50;;;4.82;;
63218;SDS011;49320;52.512;13.448;2022-12-07T03:51:51;6.70;;;4.95;;
63218;SDS011;49320;52.512;13.448;2022-12-07T03:54:30;7.47;;;4.57;;
63218;SDS011;49320;52.512;13.448;2022-12-07T03:57:18;6.15;;;4.97;;
63218;SDS011;49320;52.512;13.448;2022-12-07T03:59:47;5.50;;;4.57;;
63218;SDS011;49320;52.512;13.448;2022-12-07T04:02:15;5.40;;;4.57;;
63218;SDS011;49320;52.512;13.448;2022-12-07T04:04:42;5.82;;;4.80;;
63218;SDS011;49320;52.512;13.448;2022-12-07T04:07:09;5.20;;;4.70;;
63218;SDS011;49320;52.512;13.448;2022-12-07T04:09:36;5.15;;;4.65;;
63218;SDS011;49320;52.512;13.448;2022-12-07T04:12:03;6.85;;;5.47;;
63218;SDS011;49320;52.512;13.448;2022-12-07T04:14:30;5.38;;;4.70;;
63218;SDS011;49320;52.512;13.448;2022-12-07T04:16:57;6.30;;;5.43;;
63218;SDS011;49320;52.512;13.448;2022-12-07T04:19:26;7.50;;;5.25;;
63218;SDS011;49320;52.512;13.448;2022-12-07T04:21:56;7.18;;;5.25;;
63218;SDS011;49320;52.512;13.448;2022-12-07T04:24:24;6.68;;;5.97;;
63218;SDS011;49320;52.512;13.448;2022-12-07T04:26:51;6.95;;;5.88;;
63218;SDS011;49320;52.512;13.448;2022-12-07T04:29:18;6.32;;;5.65;;
63218;SDS011;49320;52.512;13.448;2022-12-07T04:31:46;7.93;;;6.82;;
63218;SDS011;49320;52.512;13.448;2022-12-07T04:34:13;7.80;;;6.68;;
63218;SDS011;49320;52.512;13.448;2022-12-07T04:36:42;7.10;;;6.22;;
63218;SDS011;49320;52.512;13.448;2022-12-07T04:39:20;7.75;;;6.82;;
63218;SDS011;49320;52.512;13.448;2022-12-07T04:41:50;8.27;;;7.47;;
63218;SDS011;49320;52.512;13.448;2022-12-07T04:44:18;8.23;;;7.07;;
63218;SDS011;49320;52.512;13.448;2022-12-07T04:46:46;8.18;;;6.85;;
63218;SDS011;49320;52.512;13.448;2022-12-07T04:49:14;8.77;;;7.88;;
63218;SDS011;49320;52.512;13.448;2022-12-07T04:51:42;9.30;;;8.15;;
63218;SDS011;49320;52.512;13.448;2022-12-07T04:54:10;8.65;;;7.75;;
63218;SDS011;49320;52.512;13.448;2022-12-07T04:56:37;8.20;;;7.40;;
63218;SDS011;49320;52.512;13.448;2022-12-07T04:59:05;10.40;;;8.57;;
63218;SDS011;49320;52.512;13.448;2022-12-07T05:01:32;10.02;;;8.73;;
63218;SDS011;49320;52.512;13.448;2022-12-07T05:03:59;9.85;;;8.50;;
63218;SDS011;49320;52.512;13.448;2022-12-07T05:06:26;10.93;;;9.10;;
63218;SDS011;49320;52.512;13.448;2022-12-07T05:08:53;10.18;;;9.10;;
63218;SDS011;49320;52.512;13.448;2022-12-07T05:11:20;9.90;;;8.90;;
63218;SDS011;49320;52.512;13.448;2022-12-07T05:14:12;10.65;;;8.82;;
63218;SDS011;49320;52.512;13.448;2022-12-07T05:16:46;9.30;;;8.30;;
63218;SDS011;49320;52.512;13.448;2022-12-07T05:19:17;10.82;;;9.63;;
63218;SDS011;49320;52.512;13.448;2022-12-07T05:21:44;10.35;;;8.75;;
63218;SDS011;49320;52.512;13.448;2022-12-07T05:24:12;10.02;;;8.18;;
63218;SDS011;49320;52.512;13.448;2022-12-07T05:26:41;10.65;;;9.02;;
63218;SDS011;49320;52.512;13.448;2022-12-07T05:29:10;10.93;;;9.82;;
63218;SDS011;49320;52.512;13.448;2022-12-07T05:31:39;10.27;;;8.85;;
63218;SDS011;49320;52.512;13.448;2022-12-07T05:34:07;10.32;;;9.23;;
63218;SDS011;49320;52.512;13.448;2022-12-07T05:36:34;12.25;;;10.43;;
63218;SDS011;49320;52.512;13.448;2022-12-07T05:39:01;10.95;;;9.18;;
63218;SDS011;49320;52.512;13.448;2022-12-07T05:41:29;11.75;;;10.25;;
63218;SDS011;49320;52.512;13.448;2022-12-07T05:44:14;11.40;;;10.10;;
63218;SDS011;49320;52.512;13.448;2022-12-07T05:46:41;11.38;;;10.18;;
63218;SDS011;49320;52.512;13.448;2022-12-07T05:49:08;13.05;;;10.73;;
63218;SDS011;49320;52.512;13.448;2022-12-07T05:51:34;11.98;;;10.05;;
63218;SDS011;49320;52.512;13.448;2022-12-07T05:54:01;13.38;;;11.23;;
63218;SDS011;49320;52.512;13.448;2022-12-07T05:56:28;13.82;;;10.88;;
63218;SDS011;49320;52.512;13.448;2022-12-07T05:58:56;11.07;;;9.88;;
63218;SDS011;49320;52.512;13.448;2022-12-07T06:01:41;12.77;;;10.27;;
63218;SDS011;49320;52.512;13.448;2022-12-07T06:04:08;13.82;;;10.93;;
63218;SDS011;49320;52.512;13.448;2022-12-07T06:06:35;13.98;;;10.30;;
63218;SDS011;49320;52.512;13.448;2022-12-07T06:09:03;12.27;;;10.38;;
63218;SDS011;49320;52.512;13.448;2022-12-07T06:11:30;13.55;;;11.85;;
63218;SDS011;49320;52.512;13.448;2022-12-07T06:14:15;12.48;;;10.63;;
63218;SDS011;49320;52.512;13.448;2022-12-07T06:16:42;13.85;;;10.82;;
63218;SDS011;49320;52.512;13.448;2022-12-07T06:19:09;13.23;;;10.40;;
63218;SDS011;49320;52.512;13.448;2022-12-07T06:21:36;13.57;;;10.65;;
63218;SDS011;49320;52.512;13.448;2022-12-07T06:24:03;12.48;;;10.52;;
63218;SDS011;49320;52.512;13.448;2022-12-07T06:26:31;14.07;;;11.05;;
63218;SDS011;49320;52.512;13.448;2022-12-07T06:28:57;14.40;;;11.48;;
63218;SDS011;49320;52.512;13.448;2022-12-07T06:31:25;12.88;;;10.65;;
63218;SDS011;49320;52.512;13.448;2022-12-07T06:33:56;14.40;;;11.18;;
63218;SDS011;49320;52.512;13.448;2022-12-07T06:36:27;13.25;;;10.93;;
63218;SDS011;49320;52.512;13.448;2022-12-07T06:38:54;13.77;;;11.57;;
63218;SDS011;49320;52.512;13.448;2022-12-07T06:41:22;17.85;;;13.25;;
63218;SDS011;49320;52.512;13.448;2022-12-07T06:43:50;15.13;;;12.52;;
63218;SDS011;49320;52.512;13.448;2022-12-07T06:46:21;13.73;;;10.98;;
63218;SDS011;49320;52.512;13.448;2022-12-07T06:48:49;13.80;;;10.93;;
63218;SDS011;49320;52.512;13.448;2022-12-07T06:51:16;13.63;;;11.20;;
63218;SDS011;49320;52.512;13.448;2022-12-07T06:53:43;12.85;;;9.90;;
63218;SDS011;49320;52.512;13.448;2022-12-07T06:56:10;12.43;;;10.65;;
63218;SDS011;49320;52.512;13.448;2022-12-07T06:58:37;12.02;;;10.27;;
63218;SDS011;49320;52.512;13.448;2022-12-07T07:01:08;13.05;;;11.32;;
63218;SDS011;49320;52.512;13.448;2022-12-07T07:03:37;11.73;;;9.90;;
63218;SDS011;49320;52.512;13.448;2022-12-07T07:06:04;12.88;;;10.85;;
63218;SDS011;49320;52.512;13.448;2022-12-07T07:08:33;14.93;;;12.45;;
63218;SDS011;49320;52.512;13.448;2022-12-07T07:11:02;14.45;;;11.13;;
63218;SDS011;49320;52.512;13.448;2022-12-07T07:13:29;15.10;;;11.55;;
63218;SDS011;49320;52.512;13.448;2022-12-07T07:15:56;14.57;;;11.43;;
63218;SDS011;49320;52.512;13.448;2022-12-07T07:18:23;15.02;;;10.38;;
63218;SDS011;49320;52.512;13.448;2022-12-07T07:20:51;13.48;;;11.35;;
63218;SDS011;49320;52.512;13.448;2022-12-07T07:23:19;12.73;;;11.23;;
63218;SDS011;49320;52.512;13.448;2022-12-07T07:25:47;12.98;;;11.10;;
63218;SDS011;49320;52.512;13.448;2022-12-07T07:28:14;12.57;;;10.48;;
63218;SDS011;49320;52.512;13.448;2022-12-07T07:30:42;11.68;;;10.07;;
63218;SDS011;49320;52.512;13.448;2022-12-07T07:33:09;13.57;;;10.50;;
63218;SDS011;49320;52.512;13.448;2022-12-07T07:35:37;13.23;;;11.13;;
63218;SDS011;49320;52.512;13.448;2022-12-07T07:38:05;12.35;;;11.05;;
63218;SDS011;49320;52.512;13.448;2022-12-07T07:40:33;12.15;;;9.68;;
63218;SDS011;49320;52.512;13.448;2022-12-07T07:43:00;12.20;;;10.40;;
63218;SDS011;49320;52.512;13.448;2022-12-07T07:45:27;13.55;;;9.93;;
63218;SDS011;49320;52.512;13.448;2022-12-07T07:47:54;13.02;;;9.25;;
63218;SDS011;49320;52.512;13.448;2022-12-07T07:50:21;11.30;;;9.40;;
63218;SDS011;49320;52.512;13.448;2022-12-07T07:52:48;10.80;;;9.25;;
63218;SDS011;49320;52.512;13.448;2022-12-07T07:55:17;10.80;;;8.95;;
63218;SDS011;49320;52.512;13.448;2022-12-07T07:57:44;10.00;;;8.50;;
63218;SDS011;49320;52.512;13.448;2022-12-07T08:00:19;11.73;;;8.45;;
63218;SDS011;49320;52.512;13.448;2022-12-07T08:02:46;11.55;;;8.52;;
63218;SDS011;49320;52.512;13.448;2022-12-07T08:05:13;9.48;;;7.45;;
63218;SDS011;49320;52.512;13.448;2022-12-07T08:07:40;13.23;;;8.15;;
63218;SDS011;49320;52.512;13.448;2022-12-07T08:10:09;9.80;;;8.18;;
63218;SDS011;49320;52.512;13.448;2022-12-07T08:12:39;9.23;;;7.32;;
63218;SDS011;49320;52.512;13.448;2022-12-07T08:15:27;8.90;;;7.05;;
63218;SDS011;49320;52.512;13.448;2022-12-07T08:17:56;8.10;;;6.82;;
63218;SDS011;49320;52.512;13.448;2022-12-07T08:20:24;8.50;;;6.90;;
63218;SDS011;49320;52.512;13.448;2022-12-07T08:22:51;8.82;;;6.65;;
63218;SDS011;49320;52.512;13.448;2022-12-07T08:25:18;8.05;;;5.82;;
63218;SDS011;49320;52.512;13.448;2022-12-07T08:27:45;8.77;;;6.10;;
63218;SDS011;49320;52.512;13.448;2022-12-07T08:30:12;7.85;;;5.45;;
63218;SDS011;49320;52.512;13.448;2022-12-07T08:32:39;8.10;;;6.20;;
63218;SDS011;49320;52.512;13.448;2022-12-07T08:35:07;7.25;;;6.07;;
63218;SDS011;49320;52.512;13.448;2022-12-07T08:37:35;7.20;;;5.60;;
63218;SDS011;49320;52.512;13.448;2022-12-07T08:40:03;7.22;;;5.72;;
63218;SDS011;49320;52.512;13.448;2022-12-07T08:42:33;5.82;;;4.90;;
63218;SDS011;49320;52.512;13.448;2022-12-07T08:45:07;5.80;;;4.72;;
63218;SDS011;49320;52.512;13.448;2022-12-07T08:47:41;7.70;;;4.65;;
63218;SDS011;49320;52.512;13.448;2022-12-07T08:50:20;4.90;;;3.97;;
63218;SDS011;49320;52.512;13.448;2022-12-07T08:52:48;4.30;;;3.53;;
63218;SDS011;49320;52.512;13.448;2022-12-07T08:55:23;4.10;;;3.60;;
63218;SDS011;49320;52.512;13.448;2022-12-07T08:57:50;4.55;;;3.22;;
63218;SDS011;49320;52.512;13.448;2022-12-07T09:00:17;4.38;;;3.40;;
63218;SDS011;49320;52.512;13.448;2022-12-07T09:02:44;3.70;;;3.00;;
63218;SDS011;49320;52.512;13.448;2022-12-07T09:05:12;2.53;;;2.30;;
63218;SDS011;49320;52.512;13.448;2022-12-07T09:07:43;2.60;;;2.40;;
63218;SDS011;49320;52.512;13.448;2022-12-07T09:10:14;4.55;;;2.63;;
63218;SDS011;49320;52.512;13.448;2022-12-07T09:12:41;3.42;;;2.55;;
63218;SDS011;49320;52.512;13.448;2022-12-07T09:15:08;2.78;;;2.47;;
63218;SDS011;49320;52.512;13.448;2022-12-07T09:17:35;2.70;;;1.95;;
63218;SDS011;49320;52.512;13.448;2022-12-07T09:20:03;2.83;;;2.10;;
63218;SDS011;49320;52.512;13.448;2022-12-07T09:22:31;2.63;;;2.08;;
63218;SDS011;49320;52.512;13.448;2022-12-07T09:24:59;2.55;;;1.90;;
63218;SDS011;49320;52.512;13.448;2022-12-07T09:27:26;2.95;;;2.22;;
63218;SDS011;49320;52.512;13.448;2022-12-07T09:29:53;2.35;;;1.92;;
63218;SDS011;49320;52.512;13.448;2022-12-07T09:32:20;2.67;;;1.80;;
63218;SDS011;49320;52.512;13.448;2022-12-07T09:34:47;2.83;;;1.83;;
63218;SDS011;49320;52.512;13.448;2022-12-07T09:37:15;2.25;;;2.00;;
63218;SDS011;49320;52.512;13.448;2022-12-07T09:39:42;2.15;;;1.70;;
63218;SDS011;49320;52.512;13.448;2022-12-07T09:42:24;3.20;;;2.13;;
63218;SDS011;49320;52.512;13.448;2022-12-07T09:45:04;2.50;;;2.30;;
63218;SDS011;49320;52.512;13.448;2022-12-07T09:47:38;3.08;;;2.10;;
63218;SDS011;49320;52.512;13.448;2022-12-07T09:50:06;2.38;;;2.03;;
63218;SDS011;49320;52.512;13.448;2022-12-07T09:52:41;2.78;;;2.28;;
63218;SDS011;49320;52.512;13.448;2022-12-07T09:55:28;2.50;;;1.88;;
63218;SDS011;49320;52.512;13.448;2022-12-07T09:57:57;2.47;;;1.88;;
63218;SDS011;49320;52.512;13.448;2022-12-07T10:00:25;2.45;;;1.83;;
63218;SDS011;49320;52.512;13.448;2022-12-07T10:02:57;2.90;;;1.95;;
63218;SDS011;49320;52.512;13.448;2022-12-07T10:05:30;2.67;;;1.90;;
63218;SDS011;49320;52.512;13.448;2022-12-07T10:08:07;2.15;;;1.75;;
63218;SDS011;49320;52.512;13.448;2022-12-07T10:10:38;3.13;;;1.70;;
63218;SDS011;49320;52.512;13.448;2022-12-07T10:13:10;2.00;;;1.73;;
63218;SDS011;49320;52.512;13.448;2022-12-07T10:18:29;2.58;;;1.95;;
63218;SDS011;49320;52.512;13.448;2022-12-07T10:21:06;2.10;;;1.88;;
63218;SDS011;49320;52.512;13.448;2022-12-07T10:23:40;2.13;;;1.90;;
63218;SDS011;49320;52.512;13.448;2022-12-07T10:26:28;1.70;;;1.40;;
63218;SDS011;49320;52.512;13.448;2022-12-07T10:29:15;2.90;;;1.77;;
63218;SDS011;49320;52.512;13.448;2022-12-07T10:32:04;2.92;;;2.20;;
63218;SDS011;49320;52.512;13.448;2022-12-07T10:35:18;2.15;;;1.70;;
63218;SDS011;49320;52.512;13.448;2022-12-07T10:37:52;3.22;;;2.20;;
63218;SDS011;49320;52.512;13.448;2022-12-07T10:41:04;2.72;;;1.85;;
63218;SDS011;49320;52.512;13.448;2022-12-07T10:43:34;2.17;;;1.63;;
63218;SDS011;49320;52.512;13.448;2022-12-07T10:48:55;1.70;;;1.60;;
63218;SDS011;49320;52.512;13.448;2022-12-07T10:52:11;2.78;;;2.00;;
63218;SDS011;49320;52.512;13.448;2022-12-07T10:58:32;5.10;;;1.98;;
63218;SDS011;49320;52.512;13.448;2022-12-07T11:07:34;2.53;;;2.00;;
63218;SDS011;49320;52.512;13.448;2022-12-07T11:13:22;2.63;;;2.17;;
63218;SDS011;49320;52.512;13.448;2022-12-07T11:19:45;2.72;;;2.40;;
63218;SDS011;49320;52.512;13.448;2022-12-07T11:22:51;2.58;;;2.38;;
63218;SDS011;49320;52.512;13.448;2022-12-07T11:25:47;4.82;;;2.95;;
63218;SDS011;49320;52.512;13.448;2022-12-07T11:28:28;2.80;;;2.40;;
63218;SDS011;49320;52.512;13.448;2022-12-07T11:31:41;4.85;;;2.67;;
63218;SDS011;49320;52.512;13.448;2022-12-07T11:34:47;5.72;;;2.10;;
63218;SDS011;49320;52.512;13.448;2022-12-07T11:37:34;4.55;;;2.58;;
63218;SDS011;49320;52.512;13.448;2022-12-07T11:40:08;3.83;;;2.72;;
63218;SDS011;49320;52.512;13.448;2022-12-07T11:43:04;4.30;;;2.33;;
63218;SDS011;49320;52.512;13.448;2022-12-07T11:46:09;4.90;;;2.55;;
63218;SDS011;49320;52.512;13.448;2022-12-07T11:49:03;4.70;;;2.92;;
63218;SDS011;49320;52.512;13.448;2022-12-07T11:51:38;3.75;;;2.58;;
63218;SDS011;49320;52.512;13.448;2022-12-07T11:54:14;3.15;;;2.47;;
63218;SDS011;49320;52.512;13.448;2022-12-07T11:56:52;3.75;;;2.78;;
63218;SDS011;49320;52.512;13.448;2022-12-07T11:59:27;3.90;;;2.80;;
63218;SDS011;49320;52.512;13.448;2022-12-07T12:02:24;10.45;;;3.38;;
63218;SDS011;49320;52.512;13.448;2022-12-07T12:05:07;3.47;;;2.50;;
63218;SDS011;49320;52.512;13.448;2022-12-07T12:07:44;4.13;;;2.90;;
63218;SDS011;49320;52.512;13.448;2022-12-07T12:13:43;3.70;;;2.47;;
63218;SDS011;49320;52.512;13.448;2022-12-07T12:23:11;5.82;;;2.72;;
63218;SDS011;49320;52.512;13.448;2022-12-07T12:25:47;4.72;;;2.15;;
63218;SDS011;49320;52.512;13.448;2022-12-07T12:28:40;3.65;;;2.28;;
63218;SDS011;49320;52.512;13.448;2022-12-07T12:31:31;3.67;;;2.20;;
63218;SDS011;49320;52.512;13.448;2022-12-07T12:34:02;4.13;;;2.40;;
63218;SDS011;49320;52.512;13.448;2022-12-07T12:36:51;3.63;;;2.20;;
63218;SDS011;49320;52.512;13.448;2022-12-07T12:39:18;4.70;;;1.75;;
63218;SDS011;49320;52.512;13.448;2022-12-07T12:46:48;5.65;;;2.47;;
63218;SDS011;49320;52.512;13.448;2022-12-07T13:02:20;5.45;;;2.65;;
63218;SDS011;49320;52.512;13.448;2022-12-07T13:13:03;2.70;;;2.17;;
63218;SDS011;49320;52.512;13.448;2022-12-07T13:15:53;4.20;;;1.50;;
63218;SDS011;49320;52.512;13.448;2022-12-07T13:18:40;4.30;;;1.90;;
63218;SDS011;49320;52.512;13.448;2022-12-07T13:29:12;4.10;;;1.98;;
63218;SDS011;49320;52.512;13.448;2022-12-07T13:31:51;2.70;;;1.70;;
63218;SDS011;49320;52.512;13.448;2022-12-07T13:34:38;4.40;;;2.45;;
63218;SDS011;49320;52.512;13.448;2022-12-07T13:37:10;4.20;;;1.60;;
63218;SDS011;49320;52.512;13.448;2022-12-07T13:40:19;4.43;;;1.80;;
63218;SDS011;49320;52.512;13.448;2022-12-07T13:42:56;3.55;;;1.70;;
63218;SDS011;49320;52.512;13.448;2022-12-07T13:45:38;5.75;;;2.17;;
63218;SDS011;49320;52.512;13.448;2022-12-07T13:48:22;3.13;;;1.70;;
63218;SDS011;49320;52.512;13.448;2022-12-07T13:50:59;3.38;;;2.00;;
63218;SDS011;49320;52.512;13.448;2022-12-07T13:53:29;4.10;;;1.83;;
63218;SDS011;49320;52.512;13.448;2022-12-07T13:55:57;3.67;;;1.70;;
63218;SDS011;49320;52.512;13.448;2022-12-07T13:58:29;2.70;;;1.67;;
63218;SDS011;49320;52.512;13.448;2022-12-07T14:00:58;3.42;;;2.10;;
63218;SDS011;49320;52.512;13.448;2022-12-07T14:03:28;6.05;;;1.98;;
63218;SDS011;49320;52.512;13.448;2022-12-07T14:06:03;3.92;;;1.80;;
63218;SDS011;49320;52.512;13.448;2022-12-07T14:08:42;2.63;;;1.98;;
63218;SDS011;49320;52.512;13.448;2022-12-07T14:11:13;4.20;;;1.80;;
63218;SDS011;49320;52.512;13.448;2022-12-07T14:16:32;4.95;;;1.95;;
63218;SDS011;49320;52.512;13.448;2022-12-07T14:19:04;2.97;;;2.00;;
63218;SDS011;49320;52.512;13.448;2022-12-07T14:27:47;3.08;;;1.73;;
63218;SDS011;49320;52.512;13.448;2022-12-07T14:30:22;4.13;;;2.00;;
63218;SDS011;49320;52.512;13.448;2022-12-07T14:32:54;3.65;;;2.17;;
63218;SDS011;49320;52.512;13.448;2022-12-07T14:35:31;2.75;;;1.80;;
63218;SDS011;49320;52.512;13.448;2022-12-07T14:37:58;4.13;;;1.90;;
63218;SDS011;49320;52.512;13.448;2022-12-07T14:40:26;3.50;;;1.88;;
63218;SDS011;49320;52.512;13.448;2022-12-07T14:42:57;2.90;;;1.50;;
63218;SDS011;49320;52.512;13.448;2022-12-07T14:45:29;3.42;;;1.63;;
63218;SDS011;49320;52.512;13.448;2022-12-07T14:47:56;3.28;;;1.67;;
63218;SDS011;49320;52.512;13.448;2022-12-07T14:50:44;4.82;;;1.73;;
63218;SDS011;49320;52.512;13.448;2022-12-07T14:53:39;4.28;;;2.13;;
63218;SDS011;49320;52.512;13.448;2022-12-07T14:56:15;6.45;;;1.77;;
63218;SDS011;49320;52.512;13.448;2022-12-07T14:58:41;5.55;;;2.10;;
63218;SDS011;49320;52.512;13.448;2022-12-07T15:01:08;5.00;;;1.85;;
63218;SDS011;49320;52.512;13.448;2022-12-07T15:03:35;4.30;;;1.58;;
63218;SDS011;49320;52.512;13.448;2022-12-07T15:06:04;3.40;;;1.85;;
63218;SDS011;49320;52.512;13.448;2022-12-07T15:08:32;4.00;;;1.60;;
63218;SDS011;49320;52.512;13.448;2022-12-07T15:10:59;5.13;;;1.90;;
63218;SDS011;49320;52.512;13.448;2022-12-07T15:13:26;3.45;;;1.60;;
63218;SDS011;49320;52.512;13.448;2022-12-07T15:16:12;2.45;;;1.50;;
63218;SDS011;49320;52.512;13.448;2022-12-07T15:18:45;4.50;;;1.52;;
63218;SDS011;49320;52.512;13.448;2022-12-07T15:21:31;2.10;;;1.30;;
63218;SDS011;49320;52.512;13.448;2022-12-07T15:23:58;3.42;;;1.20;;
63218;SDS011;49320;52.512;13.448;2022-12-07T15:26:25;4.88;;;1.60;;
63218;SDS011;49320;52.512;13.448;2022-12-07T15:28:52;3.50;;;1.70;;
63218;SDS011;49320;52.512;13.448;2022-12-07T15:31:20;3.53;;;1.60;;
63218;SDS011;49320;52.512;13.448;2022-12-07T15:34:07;3.88;;;1.70;;
63218;SDS011;49320;52.512;13.448;2022-12-07T15:36:34;4.53;;;1.67;;
63218;SDS011;49320;52.512;13.448;2022-12-07T15:39:01;3.42;;;1.52;;
63218;SDS011;49320;52.512;13.448;2022-12-07T15:41:44;3.30;;;1.55;;
63218;SDS011;49320;52.512;13.448;2022-12-07T15:44:12;3.10;;;1.40;;
63218;SDS011;49320;52.512;13.448;2022-12-07T15:46:59;2.97;;;1.50;;
63218;SDS011;49320;52.512;13.448;2022-12-07T15:49:26;2.15;;;1.30;;
63218;SDS011;49320;52.512;13.448;2022-12-07T15:51:53;5.72;;;1.75;;
63218;SDS011;49320;52.512;13.448;2022-12-07T15:54:21;5.68;;;1.80;;
63218;SDS011;49320;52.512;13.448;2022-12-07T15:56:55;2.50;;;1.23;;
63218;SDS011;49320;52.512;13.448;2022-12-07T15:59:22;4.07;;;1.50;;
63218;SDS011;49320;52.512;13.448;2022-12-07T16:01:50;3.72;;;1.70;;
63218;SDS011;49320;52.512;13.448;2022-12-07T16:04:17;3.60;;;1.80;;
63218;SDS011;49320;52.512;13.448;2022-12-07T16:06:44;5.38;;;1.60;;
63218;SDS011;49320;52.512;13.448;2022-12-07T16:09:11;3.17;;;1.73;;
63218;SDS011;49320;52.512;13.448;2022-12-07T16:11:38;4.15;;;1.60;;
63218;SDS011;49320;52.512;13.448;2022-12-07T16:14:05;3.63;;;1.80;;
63218;SDS011;49320;52.512;13.448;2022-12-07T16:16:31;3.65;;;1.55;;
63218;SDS011;49320;52.512;13.448;2022-12-07T16:18:58;5.57;;;2.40;;
63218;SDS011;49320;52.512;13.448;2022-12-07T16:21:25;5.60;;;1.80;;
63218;SDS011;49320;52.512;13.448;2022-12-07T16:23:52;4.53;;;2.35;;
63218;SDS011;49320;52.512;13.448;2022-12-07T16:26:20;3.65;;;1.83;;
63218;SDS011;49320;52.512;13.448;2022-12-07T16:28:48;4.25;;;1.95;;
63218;SDS011;49320;52.512;13.448;2022-12-07T16:31:17;2.92;;;1.38;;
63218;SDS011;49320;52.512;13.448;2022-12-07T16:33:48;4.60;;;1.90;;
63218;SDS011;49320;52.512;13.448;2022-12-07T16:36:16;4.55;;;1.83;;
63218;SDS011;49320;52.512;13.448;2022-12-07T16:39:04;3.55;;;1.80;;
63218;SDS011;49320;52.512;13.448;2022-12-07T16:41:31;5.35;;;2.00;;